Time;durP1;ratioP1;P1;durP2;ratioP2;P2;SDS_P1;SDS_P2;PMS_P1;PMS_P2;Temp;Humidity;BMP_temperature;BMP_pressure;BME280_temperature;BME280_humidity;BME280_pressure;Samples;Min_cycle;Max_cycle;Signal;HPM_P1;HPM_P2
2022/06/06 00:00:29;;;;;;;96.03;33.63;;;;;;;14.01;100.00;101355.41;5033978;28;20020;-48
2022/06/06 00:02:55;;;;;;;103.65;35.25;;;;;;;14.03;100.00;101353.38;5034366;28;20402;-46
2022/06/06 00:05:20;;;;;;;104.97;35.03;;;;;;;14.03;100.00;101343.47;5029500;28;20025;-45
2022/06/06 00:07:45;;;;;;;97.00;32.97;;;;;;;14.05;100.00;101337.91;5016412;28;20543;-44
2022/06/06 00:10:11;;;;;;;93.93;33.85;;;;;;;14.03;100.00;101340.78;5016182;28;20034;-45
2022/06/06 00:12:36;;;;;;;82.05;31.10;;;;;;;14.04;100.00;101345.16;5025384;28;20530;-44
2022/06/06 00:15:03;;;;;;;89.50;32.97;;;;;;;14.06;100.00;101350.34;5034456;28;20029;-45
2022/06/06 00:17:29;;;;;;;88.38;33.95;;;;;;;14.06;100.00;101348.50;5029972;28;20390;-43
2022/06/06 00:19:54;;;;;;;84.18;31.10;;;;;;;14.08;100.00;101343.78;5023911;28;20108;-47
2022/06/06 00:22:20;;;;;;;84.45;30.60;;;;;;;14.11;100.00;101348.00;5015890;28;20033;-45
2022/06/06 00:24:45;;;;;;;81.80;30.15;;;;;;;14.11;100.00;101348.81;5022141;28;20104;-44
2022/06/06 00:27:10;;;;;;;88.10;30.90;;;;;;;14.13;100.00;101343.28;5036312;28;20041;-44
2022/06/06 00:29:36;;;;;;;77.78;30.23;;;;;;;14.09;100.00;101334.72;5036087;28;20462;-45
2022/06/06 00:34:51;;;;;;;71.22;29.08;;;;;;;14.11;100.00;101338.06;5030380;28;20095;-45
2022/06/06 00:37:24;;;;;;;75.68;28.42;;;;;;;14.12;100.00;101336.22;5031485;28;20546;-46
2022/06/06 00:39:50;;;;;;;72.25;27.45;;;;;;;14.12;100.00;101333.53;5036301;28;20118;-44
2022/06/06 00:42:22;;;;;;;74.53;29.80;;;;;;;14.12;100.00;101328.16;5033779;28;20150;-44
2022/06/06 00:45:08;;;;;;;73.80;27.88;;;;;;;14.14;100.00;101329.69;5036562;28;20320;-45
2022/06/06 00:47:37;;;;;;;75.50;29.65;;;;;;;14.12;100.00;101325.47;5035808;28;20598;-45
2022/06/06 00:50:10;;;;;;;74.25;28.60;;;;;;;14.12;100.00;101322.78;5035935;28;20067;-48
2022/06/06 00:52:39;;;;;;;73.65;27.75;;;;;;;14.10;100.00;101327.50;5016818;28;20022;-45
2022/06/06 00:55:10;;;;;;;74.50;27.42;;;;;;;14.13;100.00;101325.31;5024531;28;20583;-48
2022/06/06 00:57:37;;;;;;;;;;;;;;;14.13;100.00;101332.53;5023120;28;20041;-46
2022/06/06 01:00:09;;;;;;;71.10;27.58;;;;;;;14.09;100.00;101328.53;5036206;28;19916;-48
2022/06/06 01:02:35;;;;;;;72.72;28.27;;;;;;;14.08;100.00;101325.00;5034431;28;20033;-43
2022/06/06 01:05:02;;;;;;;71.85;27.90;;;;;;;14.06;100.00;101323.50;5039095;28;20291;-43
2022/06/06 01:07:28;;;;;;;77.97;28.42;;;;;;;14.04;100.00;101331.72;5038409;28;20028;-46
2022/06/06 01:09:53;;;;;;;81.25;28.73;;;;;;;14.04;100.00;101329.03;5039476;28;20028;-46
2022/06/06 01:12:21;;;;;;;81.30;29.70;;;;;;;14.04;100.00;101328.22;5038606;28;20383;-45
2022/06/06 01:14:55;;;;;;;76.72;29.75;;;;;;;14.02;100.00;101320.31;5039955;28;20032;-45
2022/06/06 01:17:44;;;;;;;78.15;28.13;;;;;;;14.02;100.00;101331.06;5038866;28;20032;-43
2022/06/06 01:20:34;;;;;;;74.43;28.20;;;;;;;14.02;100.00;101332.88;5039375;28;20041;-45
2022/06/06 01:23:11;;;;;;;67.78;25.85;;;;;;;14.02;100.00;101320.31;5038794;28;20382;-45
2022/06/06 01:26:04;;;;;;;72.22;27.88;;;;;;;14.04;100.00;101323.66;5038308;28;20537;-44
2022/06/06 01:29:00;;;;;;;69.43;26.65;;;;;;;14.06;100.00;101323.50;5038892;28;20095;-44
2022/06/06 01:31:34;;;;;;;67.18;26.45;;;;;;;14.08;100.00;101321.47;5039551;28;20139;-45
2022/06/06 01:34:02;;;;;;;60.10;23.85;;;;;;;14.07;100.00;101322.47;5038620;28;20056;-46
2022/06/06 01:36:29;;;;;;;65.15;24.70;;;;;;;14.04;100.00;101322.84;5027945;28;20216;-45
2022/06/06 01:38:57;;;;;;;68.80;26.70;;;;;;;14.06;100.00;101321.63;5037787;28;20032;-45
2022/06/06 01:41:37;;;;;;;70.28;28.10;;;;;;;14.09;100.00;101328.53;5038556;28;20733;-44
2022/06/06 01:44:10;;;;;;;74.85;28.15;;;;;;;14.11;100.00;101330.03;5038633;28;20344;-44
2022/06/06 01:46:36;;;;;;;81.97;30.05;;;;;;;14.12;100.00;101323.66;5039490;28;20538;-44
2022/06/06 01:49:04;;;;;;;84.70;31.83;;;;;;;14.12;100.00;101329.03;5035547;28;20041;-46
2022/06/06 01:51:31;;;;;;;87.80;32.42;;;;;;;14.15;100.00;101326.00;5033926;28;20049;-48
2022/06/06 01:53:57;;;;;;;91.60;33.97;;;;;;;14.15;100.00;101309.88;5034454;28;20092;-47
2022/06/06 01:56:26;;;;;;;93.90;36.45;;;;;;;14.15;100.00;101322.44;5038464;28;20075;-44
2022/06/06 01:58:52;;;;;;;100.35;37.25;;;;;;;14.18;100.00;101320.25;5039202;28;20582;-45
2022/06/06 02:01:18;;;;;;;108.63;39.08;;;;;;;14.18;100.00;101312.19;5038796;28;20075;-45
2022/06/06 02:03:43;;;;;;;108.32;39.53;;;;;;;14.21;100.00;101310.19;5038441;28;20029;-45
2022/06/06 02:06:09;;;;;;;109.43;39.05;;;;;;;14.19;100.00;101310.38;5037257;28;20024;-44
2022/06/06 02:08:34;;;;;;;116.18;42.22;;;;;;;14.18;100.00;101312.19;5038686;28;20049;-46
2022/06/06 02:11:00;;;;;;;117.20;41.28;;;;;;;14.14;100.00;101307.38;5027290;28;20032;-45
2022/06/06 02:13:26;;;;;;;113.70;41.58;;;;;;;14.12;100.00;101309.34;5038980;28;20051;-44
2022/06/06 02:15:52;;;;;;;119.13;42.67;;;;;;;14.11;100.00;101294.28;5038810;28;20480;-45
2022/06/06 02:18:17;;;;;;;110.88;41.80;;;;;;;14.13;100.00;101293.06;5037259;28;20100;-45
2022/06/06 02:20:43;;;;;;;123.68;43.78;;;;;;;14.13;100.00;101298.44;5038033;28;20613;-45
2022/06/06 02:23:08;;;;;;;112.07;43.33;;;;;;;14.17;100.00;101289.03;5038212;28;20021;-47
2022/06/06 02:25:34;;;;;;;108.55;42.25;;;;;;;14.18;100.00;101289.88;5022538;28;21141;-43
2022/06/06 02:28:01;;;;;;;109.40;43.42;;;;;;;14.17;100.00;101285.50;5052936;28;20214;-44
2022/06/06 02:30:29;;;;;;;117.10;43.97;;;;;;;14.20;100.00;101287.84;5038215;28;20029;-45
2022/06/06 02:32:55;;;;;;;114.07;44.70;;;;;;;14.20;100.00;101289.69;5036660;28;20047;-45
2022/06/06 02:35:24;;;;;;;117.47;44.72;;;;;;;14.23;100.00;101298.25;5037869;28;20580;-45
2022/06/06 02:37:51;;;;;;;110.13;43.83;;;;;;;14.18;100.00;101287.19;5037860;28;20021;-45
2022/06/06 02:40:19;;;;;;;109.38;44.00;;;;;;;14.18;100.00;101293.38;5035085;28;20154;-46
2022/06/06 02:42:45;;;;;;;111.65;43.35;;;;;;;14.18;100.00;101293.38;5037975;28;20096;-43
2022/06/06 02:45:15;;;;;;;117.00;44.35;;;;;;;14.18;100.00;101293.38;5036801;28;20128;-46
2022/06/06 02:47:42;;;;;;;113.70;45.08;;;;;;;14.20;100.00;101295.06;5037597;28;20017;-43
2022/06/06 02:50:09;;;;;;;105.07;42.53;;;;;;;14.18;100.00;101292.56;5037205;28;20411;-44
2022/06/06 02:52:35;;;;;;;111.30;42.28;;;;;;;14.17;100.00;101297.09;5037715;28;20039;-45
2022/06/06 02:55:02;;;;;;;111.35;43.17;;;;;;;14.17;100.00;101288.19;5037235;28;20199;-44
2022/06/06 02:57:27;;;;;;;106.68;42.58;;;;;;;14.18;100.00;101293.38;5036980;28;20029;-49
2022/06/06 02:59:57;;;;;;;109.70;43.55;;;;;;;14.17;100.00;101283.69;5037473;28;20025;-44
2022/06/06 03:02:22;;;;;;;109.53;41.85;;;;;;;14.17;100.00;101283.69;5036945;28;20248;-45
2022/06/06 03:04:48;;;;;;;119.38;44.10;;;;;;;14.17;100.00;101285.50;5037831;28;20463;-46
2022/06/06 03:07:48;;;;;;;119.55;44.35;;;;;;;14.16;100.00;101287.34;5037521;28;20119;-45
2022/06/06 03:10:48;;;;;;;124.57;44.95;;;;;;;14.11;100.00;101291.59;5010465;28;20044;-46
2022/06/06 03:13:23;;;;;;;130.50;46.33;;;;;;;14.09;100.00;101286.38;5037917;28;20021;-44
2022/06/06 03:22:17;;;;;;;124.80;43.65;;;;;;;14.05;100.00;101290.41;5011174;28;20049;-45
2022/06/06 03:25:01;;;;;;;117.70;44.13;;;;;;;14.04;100.00;101287.94;5025883;28;20515;-48
2022/06/06 03:27:43;;;;;;;110.60;42.90;;;;;;;14.04;100.00;101304.03;5035712;28;20150;-45
2022/06/06 03:30:33;;;;;;;117.90;41.75;;;;;;;14.04;100.00;101295.97;5036845;28;20033;-47
2022/06/06 03:33:04;;;;;;;107.68;39.78;;;;;;;14.01;100.00;101304.38;5036716;28;20578;-45
2022/06/06 03:35:46;;;;;;;116.05;41.45;;;;;;;14.01;100.00;101312.44;5036521;28;20077;-46
2022/06/06 03:38:25;;;;;;;103.63;41.13;;;;;;;13.93;100.00;101308.78;5036488;28;20494;-44
2022/06/06 03:41:02;;;;;;;109.60;41.97;;;;;;;13.89;100.00;101301.22;5035507;28;20573;-44
2022/06/06 03:43:40;;;;;;;108.85;40.55;;;;;;;13.86;100.00;101296.19;5037069;28;20391;-45
2022/06/06 03:46:13;;;;;;;101.97;40.22;;;;;;;13.85;100.00;101302.56;5035731;28;20044;-43
2022/06/06 03:49:03;;;;;;;108.95;41.53;;;;;;;13.89;100.00;101306.59;5036288;28;20052;-45
2022/06/06 03:51:59;;;;;;;102.32;39.10;;;;;;;13.87;100.00;101308.63;5014211;28;20030;-45
2022/06/06 03:54:48;;;;;;;89.82;37.05;;;;;;;13.86;100.00;101307.75;5036500;28;20276;-48
2022/06/06 03:57:15;;;;;;;96.18;38.03;;;;;;;13.84;100.00;101311.63;5035566;28;20033;-44
2022/06/06 03:59:43;;;;;;;88.40;37.00;;;;;;;13.82;100.00;101311.81;5037209;28;20017;-45
2022/06/06 04:02:13;;;;;;;78.35;35.03;;;;;;;13.77;100.00;101311.47;5021639;28;20025;-46
2022/06/06 04:04:39;;;;;;;87.15;34.53;;;;;;;13.74;100.00;101303.75;5036541;28;20109;-44
2022/06/06 04:07:04;;;;;;;84.35;33.47;;;;;;;13.70;100.00;101313.19;5036049;28;20059;-44
2022/06/06 04:09:34;;;;;;;82.47;35.50;;;;;;;13.66;100.00;101311.81;5036485;28;20024;-45
2022/06/06 04:12:09;;;;;;;76.07;33.60;;;;;;;13.64;100.00;101314.69;5033137;28;20025;-43
2022/06/06 04:15:06;;;;;;;82.15;33.13;;;;;;;13.62;100.00;101316.69;5036812;28;20071;-43
2022/06/06 04:17:53;;;;;;;78.68;32.95;;;;;;;13.60;100.00;101319.53;5019475;28;20049;-44
2022/06/06 04:20:31;;;;;;;77.65;32.55;;;;;;;13.61;100.00;101323.91;5012676;28;20529;-42
2022/06/06 04:23:22;;;;;;;70.53;30.08;;;;;;;13.65;100.00;101327.09;5036494;28;20029;-43
2022/06/06 04:26:10;;;;;;;71.65;29.45;;;;;;;13.71;100.00;101330.94;5035305;28;20167;-44
2022/06/06 04:29:05;;;;;;;70.65;29.33;;;;;;;13.72;100.00;101330.78;5036169;28;20415;-45
2022/06/06 04:31:56;;;;;;;66.15;28.95;;;;;;;13.71;100.00;101333.63;5036481;28;20055;-44
2022/06/06 04:35:00;;;;;;;62.88;27.15;;;;;;;13.65;100.00;101329.78;5012664;28;20159;-45
2022/06/06 04:37:50;;;;;;;57.90;26.25;;;;;;;13.56;100.00;101345.06;5036040;28;20226;-44
2022/06/06 04:40:37;;;;;;;54.88;25.50;;;;;;;13.50;100.00;101339.53;5039051;28;20128;-44
2022/06/06 04:43:13;;;;;;;56.28;25.15;;;;;;;13.49;100.00;101337.84;5040363;28;20025;-46
2022/06/06 04:45:48;;;;;;;61.72;25.15;;;;;;;13.45;100.00;101345.38;5040422;28;20146;-43
2022/06/06 04:48:16;;;;;;;52.97;25.40;;;;;;;13.38;100.00;101344.38;5040449;28;20089;-48
2022/06/06 04:50:43;;;;;;;53.58;24.08;;;;;;;13.34;100.00;101348.38;5017286;28;20101;-45
2022/06/06 04:53:13;;;;;;;56.83;25.20;;;;;;;13.31;100.00;101348.72;5040107;28;20547;-45
2022/06/06 04:55:41;;;;;;;53.95;24.67;;;;;;;13.30;100.00;101347.03;5038427;28;20173;-47
2022/06/06 04:58:08;;;;;;;54.88;26.42;;;;;;;13.27;100.00;101350.88;5039577;28;20033;-48
2022/06/06 05:00:38;;;;;;;50.25;25.48;;;;;;;13.26;100.00;101341.16;5038902;28;20037;-44
2022/06/06 05:03:04;;;;;;;56.15;26.70;;;;;;;13.31;100.00;101341.50;5040012;28;20340;-44
2022/06/06 05:05:45;;;;;;;54.60;25.77;;;;;;;13.37;100.00;101340.88;5039572;28;20387;-44
2022/06/06 05:08:59;;;;;;;54.70;26.83;;;;;;;13.37;100.00;101340.88;5040467;28;20021;-48
2022/06/06 05:11:30;;;;;;;49.83;25.80;;;;;;;13.40;100.00;101351.25;5038555;28;20017;-44
2022/06/06 05:14:18;;;;;;;58.05;27.92;;;;;;;13.51;100.00;101352.78;5039455;28;20163;-45
2022/06/06 05:17:02;;;;;;;52.80;28.08;;;;;;;13.56;100.00;101354.94;5040465;28;20116;-46
2022/06/06 05:19:58;;;;;;;50.80;28.80;;;;;;;13.58;100.00;101344.91;5039644;28;20108;-45
2022/06/06 05:22:38;;;;;;;50.08;27.77;;;;;;;13.60;100.00;101345.56;5038937;28;20376;-44
2022/06/06 05:25:22;;;;;;;47.78;28.00;;;;;;;13.56;100.00;101339.69;5038145;28;20075;-45
2022/06/06 05:28:06;;;;;;;51.95;27.88;;;;;;;13.42;100.00;101343.03;5039468;28;20353;-43
2022/06/06 05:30:45;;;;;;;51.05;28.58;;;;;;;13.59;100.00;101351.91;5039428;28;20656;-45
2022/06/06 05:33:34;;;;;;;50.35;27.13;;;;;;;13.66;100.00;101360.13;5038869;28;20100;-44
2022/06/06 05:36:07;;;;;;;47.33;28.70;;;;;;;13.67;100.00;101359.97;5013535;28;20041;-46
2022/06/06 05:38:48;;;;;;;47.15;28.00;;;;;;;13.73;100.00;101362.00;5036701;28;20103;-46
2022/06/06 05:41:22;;;;;;;49.03;28.60;;;;;;;13.73;100.00;101364.69;5038009;28;20032;-46
2022/06/06 05:43:59;;;;;;;43.53;27.35;;;;;;;13.74;100.00;101358.28;5038989;28;20052;-42
2022/06/06 05:46:49;;;;;;;48.33;27.85;;;;;;;13.75;100.00;101367.19;5039353;28;20495;-43
2022/06/06 05:49:45;;;;;;;42.30;26.58;;;;;;;13.79;100.00;101360.47;5038070;28;20024;-45
2022/06/06 05:52:38;;;;;;;41.83;25.33;;;;;;;13.78;100.00;101351.59;5038260;28;20041;-47
2022/06/06 05:55:52;;;;;;;42.50;26.55;;;;;;;13.87;100.00;101365.00;5037444;28;20025;-43
2022/06/06 05:58:50;;;;;;;42.63;26.05;;;;;;;13.90;100.00;101370.00;5025805;28;20029;-44
2022/06/06 06:01:27;;;;;;;37.83;22.27;;;;;;;13.89;100.00;101368.34;5023518;28;20475;-46
2022/06/06 06:04:24;;;;;;;33.05;22.17;;;;;;;13.72;100.00;101354.09;5034449;28;20407;-45
2022/06/06 06:07:21;;;;;;;36.67;21.15;;;;;;;13.86;100.00;101366.00;5035581;28;20040;-45
2022/06/06 06:10:07;;;;;;;34.08;21.17;;;;;;;13.86;100.00;101366.81;5034262;28;20021;-45
2022/06/06 06:12:40;;;;;;;34.75;20.80;;;;;;;13.90;100.00;101364.63;5023896;28;20468;-44
2022/06/06 06:15:14;;;;;;;35.03;20.33;;;;;;;13.96;100.00;101370.16;5026545;28;20285;-44
2022/06/06 06:17:39;;;;;;;36.75;19.45;;;;;;;13.99;100.00;101363.63;5030770;28;20070;-46
2022/06/06 06:20:11;;;;;;;30.55;18.77;;;;;;;14.03;100.00;101369.50;5002468;28;20026;-45
2022/06/06 06:22:45;;;;;;;26.98;16.98;;;;;;;13.99;100.00;101369.00;5036373;28;20116;-48
2022/06/06 06:25:11;;;;;;;25.67;15.07;;;;;;;14.08;100.00;101369.81;5035163;28;20053;-45
2022/06/06 06:27:38;;;;;;;27.17;14.75;;;;;;;14.13;100.00;101380.88;5032399;28;20134;-48
2022/06/06 06:30:06;;;;;;;28.30;14.85;;;;;;;14.16;100.00;101386.75;5030554;28;20025;-45
2022/06/06 06:32:40;;;;;;;25.60;15.35;;;;;;;14.13;100.00;101384.41;5033140;28;20148;-45
2022/06/06 06:35:39;;;;;;;25.80;14.05;;;;;;;14.25;100.00;101384.88;5037586;28;20498;-48
2022/06/06 06:38:35;;;;;;;24.02;13.63;;;;;;;14.31;100.00;101397.63;5018744;28;20195;-47
2022/06/06 06:41:15;;;;;;;25.85;13.60;;;;;;;14.47;100.00;101403.97;5035122;28;20200;-45
2022/06/06 06:44:06;;;;;;;24.77;14.00;;;;;;;14.49;100.00;101401.94;5037441;28;20110;-44
2022/06/06 06:46:46;;;;;;;21.60;12.80;;;;;;;14.53;100.00;101403.28;5023601;28;20025;-44
2022/06/06 06:49:17;;;;;;;23.30;11.70;;;;;;;14.49;100.00;101413.56;5016772;28;20029;-45
2022/06/06 06:52:01;;;;;;;23.40;12.15;;;;;;;14.74;100.00;101405.41;5017355;28;20037;-46
2022/06/06 06:54:47;;;;;;;21.15;12.02;;;;;;;14.85;100.00;101406.84;5018410;28;20075;-46
2022/06/06 06:57:37;;;;;;;22.80;11.55;;;;;;;14.96;100.00;101409.16;5036596;28;20470;-46
2022/06/06 07:00:15;;;;;;;21.33;11.50;;;;;;;15.00;100.00;101401.56;5022767;28;20021;-44
2022/06/06 07:09:19;;;;;;;19.85;10.05;;;;;;;14.94;100.00;101408.50;5016737;28;20048;-45
2022/06/06 07:12:29;;;;;;;18.83;9.63;;;;;;;14.69;100.00;101413.97;5004191;28;20116;-45
2022/06/06 07:15:11;;;;;;;20.75;8.57;;;;;;;14.83;100.00;101415.09;4973138;28;20125;-45
2022/06/06 07:17:52;;;;;;;17.80;8.93;;;;;;;14.97;100.00;101412.69;5024893;28;20053;-46
2022/06/06 07:20:19;;;;;;;14.77;8.25;;;;;;;15.05;100.00;101404.56;5019117;28;20039;-47
2022/06/06 07:23:03;;;;;;;12.23;7.80;;;;;;;15.10;100.00;101413.81;5022611;28;20040;-45
2022/06/06 07:25:34;;;;;;;18.45;7.90;;;;;;;15.29;100.00;101415.19;5004915;28;20104;-45
2022/06/06 07:28:00;;;;;;;12.80;7.18;;;;;;;15.38;100.00;101417.84;5016912;28;20069;-47
2022/06/06 07:30:30;;;;;;;13.10;6.80;;;;;;;15.58;100.00;101416.34;5017064;28;20060;-46
2022/06/06 07:33:08;;;;;;;11.90;6.88;;;;;;;15.82;100.00;101425.28;5033569;28;20537;-45
2022/06/06 07:35:47;;;;;;;9.50;6.43;;;;;;;15.90;100.00;101417.09;5035956;28;20053;-45
2022/06/06 07:38:33;;;;;;;8.15;6.30;;;;;;;15.88;100.00;101419.13;5035044;28;20025;-45
2022/06/06 07:41:14;;;;;;;9.35;6.78;;;;;;;15.74;100.00;101420.75;5032099;28;20179;-45
2022/06/06 07:43:59;;;;;;;9.88;7.00;;;;;;;15.81;100.00;101418.19;5022292;28;20041;-45
2022/06/06 07:46:52;;;;;;;13.38;6.70;;;;;;;15.80;100.00;101427.28;5017383;28;20308;-45
2022/06/06 07:49:23;;;;;;;13.68;6.53;;;;;;;15.80;100.00;101425.47;5021859;28;20439;-44
2022/06/06 07:51:57;;;;;;;11.07;6.80;;;;;;;15.76;99.75;101429.50;5025433;28;20106;-44
2022/06/06 07:54:48;;;;;;;8.65;6.57;;;;;;;15.79;100.00;101431.84;5028632;28;20064;-43
2022/06/06 07:57:31;;;;;;;12.30;6.90;;;;;;;15.98;100.00;101441.28;5017027;28;20138;-44
2022/06/06 08:00:18;;;;;;;10.63;6.50;;;;;;;16.03;100.00;101433.47;5005236;28;20029;-47
2022/06/06 08:02:53;;;;;;;8.80;5.93;;;;;;;15.80;100.00;101433.53;5016613;28;20036;-44
2022/06/06 08:05:43;;;;;;;10.02;5.40;;;;;;;15.57;99.50;101441.59;5016383;28;20052;-46
2022/06/06 08:08:20;;;;;;;11.55;5.55;;;;;;;15.50;100.00;101437.94;5016790;28;20017;-44
2022/06/06 08:10:47;;;;;;;8.80;5.25;;;;;;;15.48;99.49;101431.91;5015551;28;20608;-44
2022/06/06 08:13:30;;;;;;;11.15;5.82;;;;;;;15.50;100.00;101432.56;5024954;28;20139;-43
2022/06/06 08:16:17;;;;;;;9.48;5.55;;;;;;;15.36;99.18;101431.47;5018523;28;20464;-44
2022/06/06 08:19:04;;;;;;;11.77;6.00;;;;;;;15.26;100.00;101436.25;5019114;28;20100;-45
2022/06/06 08:21:39;;;;;;;9.93;5.72;;;;;;;15.16;100.00;101435.63;5019713;28;20080;-46
2022/06/06 08:24:09;;;;;;;13.38;6.78;;;;;;;15.18;100.00;101430.91;5016981;28;20025;-46
2022/06/06 08:26:39;;;;;;;11.02;5.95;;;;;;;15.22;100.00;101422.31;5019043;28;21035;-43
2022/06/06 08:29:06;;;;;;;10.98;6.07;;;;;;;15.22;100.00;101433.09;5019103;28;20572;-45
2022/06/06 08:31:32;;;;;;;12.18;6.10;;;;;;;15.35;100.00;101423.56;5019460;28;20044;-45
2022/06/06 08:33:57;;;;;;;10.82;6.72;;;;;;;15.55;100.00;101427.47;5038003;28;20021;-44
2022/06/06 08:36:51;;;;;;;13.52;6.60;;;;;;;15.76;100.00;101417.91;5039162;28;20511;-45
2022/06/06 08:39:42;;;;;;;12.93;7.03;;;;;;;16.05;100.00;101422.53;5038666;28;20036;-46
2022/06/06 08:42:10;;;;;;;;;;;;;;;16.02;98.61;101426.44;5039422;28;20563;-44
2022/06/06 08:45:06;;;;;;;17.27;6.25;;;;;;;15.87;100.00;101414.78;5040118;28;20334;-47
2022/06/06 08:47:41;;;;;;;9.27;6.47;;;;;;;16.09;100.00;101413.06;5025653;28;20108;-44
2022/06/06 08:50:46;;;;;;;9.82;6.32;;;;;;;16.25;100.00;101403.13;5032153;28;20250;-45
2022/06/06 08:53:46;;;;;;;9.55;6.15;;;;;;;16.54;99.00;101405.00;5017867;28;20033;-43
2022/06/06 08:56:28;;;;;;;11.70;6.85;;;;;;;16.73;97.50;101396.34;5039392;28;20043;-46
2022/06/06 08:59:12;;;;;;;9.77;6.15;;;;;;;16.71;94.36;101406.47;5039134;28;20159;-46
2022/06/06 09:01:43;;;;;;;10.48;5.80;;;;;;;16.82;94.84;101412.41;5016342;28;20077;-44
2022/06/06 09:04:27;;;;;;;8.32;5.90;;;;;;;16.96;94.74;101412.41;5038528;28;20087;-46
2022/06/06 09:07:50;;;;;;;7.95;5.95;;;;;;;17.22;95.15;101410.19;5037727;28;20029;-46
2022/06/06 09:10:28;;;;;;;11.13;6.10;;;;;;;17.43;94.66;101407.53;4964449;28;20030;-46
2022/06/06 09:13:21;;;;;;;14.80;5.10;;;;;;;17.42;92.88;101410.41;4977164;28;20026;-43
2022/06/06 09:16:09;;;;;;;11.70;5.28;;;;;;;17.42;95.13;101408.53;5018901;28;20050;-44
2022/06/06 09:18:56;;;;;;;10.73;5.05;;;;;;;17.38;92.66;101406.41;5025426;28;20028;-44
2022/06/06 09:21:40;;;;;;;12.82;5.22;;;;;;;17.61;93.40;101403.53;5032369;28;20049;-42
2022/06/06 09:24:30;;;;;;;12.98;5.78;;;;;;;17.97;90.87;101395.31;5036874;28;20021;-44
2022/06/06 09:27:15;;;;;;;13.15;6.30;;;;;;;17.95;88.69;101394.69;5012239;28;20124;-45
2022/06/06 09:30:09;;;;;;;16.23;6.60;;;;;;;17.61;88.67;101404.34;5039148;28;20494;-44
2022/06/06 09:32:58;;;;;;;16.65;7.13;;;;;;;17.84;90.84;101390.63;5038514;28;20029;-43
2022/06/06 09:35:35;;;;;;;15.82;7.00;;;;;;;18.19;90.33;101381.75;5038635;28;20260;-47
2022/06/06 09:38:13;;;;;;;21.05;7.68;;;;;;;18.12;86.52;101383.59;5038934;28;20539;-45
2022/06/06 09:40:49;;;;;;;15.82;7.45;;;;;;;18.05;89.46;101370.03;5037512;28;20174;-47
2022/06/06 09:43:19;;;;;;;18.13;8.00;;;;;;;17.94;87.58;101389.47;5037911;28;20116;-45
2022/06/06 09:46:06;;;;;;;16.80;5.90;;;;;;;17.78;83.37;101374.38;5039616;28;20100;-46
2022/06/06 09:48:59;;;;;;;13.32;6.07;;;;;;;18.08;84.42;101366.94;5034615;28;20048;-44
2022/06/06 09:51:55;;;;;;;12.15;5.45;;;;;;;18.33;81.37;101371.84;5027139;28;20375;-46
2022/06/06 10:01:29;;;;;;;15.00;5.40;;;;;;;19.16;78.36;101374.47;5038443;28;20514;-46
2022/06/06 10:04:15;;;;;;;9.40;4.45;;;;;;;19.48;72.40;101366.63;5038835;28;20430;-48
2022/06/06 10:07:18;;;;;;;6.60;3.53;;;;;;;19.68;70.74;101372.03;5014912;28;20117;-46
2022/06/06 10:09:53;;;;;;;10.73;4.07;;;;;;;19.22;74.25;101345.75;5036848;28;20080;-47
2022/06/06 10:12:37;;;;;;;8.93;3.80;;;;;;;19.06;75.46;101358.66;5026530;28;20032;-46
2022/06/06 10:15:05;;;;;;;8.52;3.58;;;;;;;19.45;75.99;101350.78;5012440;28;20031;-48
2022/06/06 10:18:06;;;;;;;11.60;3.97;;;;;;;19.44;73.51;101344.53;5025284;28;20029;-45
2022/06/06 10:20:50;;;;;;;;;;;;;;;19.55;73.78;101357.47;5029580;28;20025;-47
2022/06/06 10:23:22;;;;;;;5.78;2.88;;;;;;;19.12;72.47;101344.28;5033996;28;19951;-47
2022/06/06 10:26:04;;;;;;;7.90;2.97;;;;;;;19.04;74.45;101343.63;5033174;28;20021;-49
2022/06/06 10:29:00;;;;;;;8.73;3.00;;;;;;;19.14;72.79;101355.72;5017168;28;20711;-45
2022/06/06 10:31:54;;;;;;;8.35;2.45;;;;;;;19.18;73.23;101345.34;5020221;28;20107;-48
2022/06/06 10:34:57;;;;;;;12.88;3.25;;;;;;;18.85;74.20;101346.09;5021622;28;20091;-48
2022/06/06 10:37:35;;;;;;;7.30;3.00;;;;;;;18.53;77.89;101332.19;5017023;28;20107;-50
2022/06/06 10:40:21;;;;;;;6.93;2.88;;;;;;;18.46;80.08;101342.16;5018645;28;20353;-49
2022/06/06 10:42:57;;;;;;;6.97;2.70;;;;;;;18.33;78.79;101345.66;5018366;28;20049;-47
2022/06/06 10:45:31;;;;;;;7.82;2.42;;;;;;;18.39;79.85;101344.00;5018039;28;20028;-46
2022/06/06 10:48:14;;;;;;;7.93;2.22;;;;;;;18.34;76.38;101352.72;5030006;28;20079;-46
2022/06/06 10:54:04;;;;;;;11.50;2.03;;;;;;;18.30;74.66;101340.66;5017470;28;20044;-49
2022/06/06 10:56:40;;;;;;;6.90;1.95;;;;;;;18.01;71.72;101350.66;5018616;28;20032;-46
2022/06/06 10:59:11;;;;;;;6.18;1.90;;;;;;;17.81;77.01;101350.50;5017591;28;20017;-46
2022/06/06 11:01:58;;;;;;;4.80;2.22;;;;;;;18.23;77.82;101353.31;5018283;28;20034;-48
2022/06/06 11:04:51;;;;;;;5.05;2.00;;;;;;;18.69;75.69;101349.97;5033667;28;20033;-46
2022/06/06 11:07:53;;;;;;;12.35;2.20;;;;;;;19.13;77.66;101347.84;5029300;28;20296;-46
2022/06/06 11:10:33;;;;;;;8.60;2.40;;;;;;;19.58;77.41;101334.53;5010664;28;20021;-48
2022/06/06 11:13:10;;;;;;;6.68;2.38;;;;;;;19.81;72.65;101338.72;5015085;28;20558;-46
2022/06/06 11:15:47;;;;;;;7.20;2.40;;;;;;;19.91;70.76;101339.13;5033851;28;21079;-46
2022/06/06 11:18:24;;;;;;;11.55;2.78;;;;;;;20.15;72.65;101326.75;5027576;28;20059;-46
2022/06/06 11:20:56;;;;;;;8.13;2.47;;;;;;;20.51;69.48;101322.66;5028699;28;20152;-47
2022/06/06 11:24:02;;;;;;;6.85;2.58;;;;;;;20.82;69.46;101312.94;5016774;28;21013;-46
2022/06/06 11:26:47;;;;;;;6.15;2.28;;;;;;;21.02;69.44;101319.06;5011593;28;20037;-46
2022/06/06 11:29:23;;;;;;;4.10;2.70;;;;;;;21.14;65.62;101316.47;5017867;28;20041;-47
2022/06/06 11:32:26;;;;;;;5.32;2.20;;;;;;;21.14;66.63;101316.47;5018704;28;20029;-47
2022/06/06 11:35:16;;;;;;;11.25;2.33;;;;;;;20.58;68.12;101323.44;5032680;28;20025;-45
2022/06/06 11:37:47;;;;;;;8.50;2.30;;;;;;;20.46;69.60;101317.88;5006131;28;20040;-47
2022/06/06 11:40:31;;;;;;;8.70;2.72;;;;;;;20.81;67.69;101319.44;5017260;28;20060;-47
2022/06/06 11:43:25;;;;;;;8.27;2.13;;;;;;;20.86;65.36;101325.84;5017588;28;20469;-46
2022/06/06 11:46:25;;;;;;;4.82;2.30;;;;;;;20.33;68.06;101320.63;5017880;28;20030;-49
2022/06/06 11:49:13;;;;;;;5.07;2.30;;;;;;;19.64;71.59;101317.44;5016376;28;20022;-46
2022/06/06 11:52:13;;;;;;;7.38;2.17;;;;;;;19.02;76.37;101330.31;5022702;28;20517;-47
2022/06/06 11:54:59;;;;;;;7.82;2.33;;;;;;;18.49;75.55;101330.13;5004993;28;20119;-47
2022/06/06 11:57:35;;;;;;;11.43;2.25;;;;;;;18.20;77.10;101332.88;5017365;28;20086;-46
2022/06/06 12:00:08;;;;;;;6.30;2.17;;;;;;;18.08;82.03;101350.72;5018940;28;20017;-46
2022/06/06 12:03:04;;;;;;;11.95;2.83;;;;;;;17.93;83.40;101361.63;5020892;28;20076;-47
2022/06/06 12:05:56;;;;;;;7.03;2.30;;;;;;;17.75;84.71;101351.28;5031391;28;20730;-46
2022/06/06 12:08:40;;;;;;;11.75;2.72;;;;;;;17.50;83.04;101342.78;5029795;28;20029;-48
2022/06/06 12:11:08;;;;;;;7.70;2.55;;;;;;;17.32;83.11;101341.34;5031521;28;20146;-46
2022/06/06 12:14:04;;;;;;;8.32;2.70;;;;;;;17.28;84.35;101340.09;5016822;28;20040;-46
2022/06/06 12:17:08;;;;;;;12.27;2.70;;;;;;;17.10;89.62;101345.91;5012630;28;20025;-46
2022/06/06 12:19:48;;;;;;;9.05;3.38;;;;;;;16.66;98.49;101364.91;5032290;28;20025;-48
2022/06/06 12:22:26;;;;;;;9.68;3.47;;;;;;;16.02;100.00;101361.78;5029517;28;20036;-45
2022/06/06 12:25:20;;;;;;;10.38;3.67;;;;;;;15.57;100.00;101352.72;5033638;28;20056;-46